sensor_id;sensor_type;location;lat;lon;timestamp;pressure;altitude;pressure_sealevel;temperature;humidity
9225;BME280;4647;48.072;11.616;2024-03-02T00:01:39;94299.19;;;5.25;100.00
9225;BME280;4647;48.072;11.616;2024-03-02T00:04:08;94292.09;;;5.42;100.00
9225;BME280;4647;48.072;11.616;2024-03-02T00:06:36;94295.53;;;5.42;100.00
9225;BME280;4647;48.072;11.616;2024-03-02T00:09:09;94294.19;;;5.61;100.00
9225;BME280;4647;48.072;11.616;2024-03-02T00:11:39;94294.19;;;5.61;100.00
9225;BME280;4647;48.072;11.616;2024-03-02T00:14:07;94287.09;;;5.44;100.00
9225;BME280;4647;48.072;11.616;2024-03-02T00:16:36;94284.03;;;5.45;100.00
9225;BME280;4647;48.072;11.616;2024-03-02T00:19:05;94298.31;;;5.35;100.00
9225;BME280;4647;48.072;11.616;2024-03-02T00:21:35;94288.38;;;5.32;100.00
9225;BME280;4647;48.072;11.616;2024-03-02T00:24:18;94279.97;;;5.30;100.00
9225;BME280;4647;48.072;11.616;2024-03-02T00:26:48;94270.69;;;5.35;100.00
9225;BME280;4647;48.072;11.616;2024-03-02T00:29:17;94271.97;;;5.23;100.00
9225;BME280;4647;48.072;11.616;2024-03-02T00:31:46;94284.28;;;5.17;100.00
9225;BME280;4647;48.072;11.616;2024-03-02T00:34:15;94275.00;;;5.29;100.00
9225;BME280;4647;48.072;11.616;2024-03-02T00:36:45;94267.72;;;5.26;100.00
9225;BME280;4647;48.072;11.616;2024-03-02T00:39:16;94274.03;;;5.08;100.00
9225;BME280;4647;48.072;11.616;2024-03-02T00:41:45;94271.34;;;5.08;100.00
9225;BME280;4647;48.072;11.616;2024-03-02T00:44:15;94268.63;;;5.12;100.00
9225;BME280;4647;48.072;11.616;2024-03-02T00:46:44;94267.81;;;5.15;100.00
9225;BME280;4647;48.072;11.616;2024-03-02T00:49:20;94260.47;;;5.22;100.00
9225;BME280;4647;48.072;11.616;2024-03-02T00:51:50;94265.06;;;5.26;100.00
9225;BME280;4647;48.072;11.616;2024-03-02T00:54:22;94265.50;;;5.17;100.00
9225;BME280;4647;48.072;11.616;2024-03-02T00:56:51;94258.72;;;5.05;100.00
9225;BME280;4647;48.072;11.616;2024-03-02T00:59:20;94253.75;;;5.04;100.00
9225;BME280;4647;48.072;11.616;2024-03-02T01:01:49;94256.81;;;5.06;100.00
9225;BME280;4647;48.072;11.616;2024-03-02T01:04:17;94252.69;;;4.98;100.00
9225;BME280;4647;48.072;11.616;2024-03-02T01:06:46;94251.84;;;5.04;100.00
9225;BME280;4647;48.072;11.616;2024-03-02T01:09:14;94250.81;;;4.91;100.00
9225;BME280;4647;48.072;11.616;2024-03-02T01:11:45;94258.00;;;5.01;100.00
9225;BME280;4647;48.072;11.616;2024-03-02T01:14:14;94252.00;;;4.86;100.00
9225;BME280;4647;48.072;11.616;2024-03-02T01:16:42;94251.56;;;4.91;100.00
9225;BME280;4647;48.072;11.616;2024-03-02T01:19:11;94251.97;;;4.90;100.00
9225;BME280;4647;48.072;11.616;2024-03-02T01:21:40;94249.75;;;4.81;100.00
9225;BME280;4647;48.072;11.616;2024-03-02T01:24:08;94253.59;;;4.80;100.00
9225;BME280;4647;48.072;11.616;2024-03-02T01:26:38;94258.47;;;4.92;100.00
9225;BME280;4647;48.072;11.616;2024-03-02T01:29:09;94259.97;;;4.93;100.00
9225;BME280;4647;48.072;11.616;2024-03-02T01:31:37;94263.00;;;4.99;100.00
9225;BME280;4647;48.072;11.616;2024-03-02T01:34:07;94256.84;;;5.02;100.00
9225;BME280;4647;48.072;11.616;2024-03-02T01:36:36;94260.34;;;4.99;100.00
9225;BME280;4647;48.072;11.616;2024-03-02T01:39:04;94262.81;;;5.17;100.00
9225;BME280;4647;48.072;11.616;2024-03-02T01:41:35;94254.00;;;5.16;100.00
9225;BME280;4647;48.072;11.616;2024-03-02T01:44:04;94259.63;;;5.29;100.00
9225;BME280;4647;48.072;11.616;2024-03-02T01:46:35;94249.41;;;5.17;100.00
9225;BME280;4647;48.072;11.616;2024-03-02T01:49:03;94256.38;;;5.11;100.00
9225;BME280;4647;48.072;11.616;2024-03-02T01:51:32;94249.06;;;5.11;100.00
9225;BME280;4647;48.072;11.616;2024-03-02T01:54:00;94255.97;;;5.12;100.00
9225;BME280;4647;48.072;11.616;2024-03-02T01:56:28;94254.13;;;5.06;100.00
9225;BME280;4647;48.072;11.616;2024-03-02T01:58:58;94252.28;;;4.99;100.00
9225;BME280;4647;48.072;11.616;2024-03-02T02:01:26;94246.38;;;5.11;100.00
9225;BME280;4647;48.072;11.616;2024-03-02T02:03:57;94245.28;;;5.09;100.00
9225;BME280;4647;48.072;11.616;2024-03-02T02:06:25;94241.09;;;5.04;100.00
9225;BME280;4647;48.072;11.616;2024-03-02T02:08:54;94241.16;;;5.01;100.00
9225;BME280;4647;48.072;11.616;2024-03-02T02:11:20;94239.59;;;5.03;100.00
9225;BME280;4647;48.072;11.616;2024-03-02T02:13:48;94238.84;;;4.99;100.00
9225;BME280;4647;48.072;11.616;2024-03-02T02:16:17;94229.28;;;4.98;100.00
9225;BME280;4647;48.072;11.616;2024-03-02T02:18:45;94228.88;;;5.00;100.00
9225;BME280;4647;48.072;11.616;2024-03-02T02:21:16;94224.00;;;4.87;100.00
9225;BME280;4647;48.072;11.616;2024-03-02T02:23:47;94219.38;;;4.91;100.00
9225;BME280;4647;48.072;11.616;2024-03-02T02:26:16;94222.75;;;4.96;100.00
9225;BME280;4647;48.072;11.616;2024-03-02T02:28:44;94221.59;;;4.97;100.00
9225;BME280;4647;48.072;11.616;2024-03-02T02:31:13;94215.16;;;4.90;100.00
9225;BME280;4647;48.072;11.616;2024-03-02T02:33:42;94217.78;;;4.94;100.00
9225;BME280;4647;48.072;11.616;2024-03-02T02:36:10;94216.78;;;4.81;100.00
9225;BME280;4647;48.072;11.616;2024-03-02T02:38:40;94219.03;;;4.86;100.00
9225;BME280;4647;48.072;11.616;2024-03-02T02:41:12;94213.66;;;4.86;100.00
9225;BME280;4647;48.072;11.616;2024-03-02T02:43:41;94217.59;;;4.78;100.00
9225;BME280;4647;48.072;11.616;2024-03-02T02:46:09;94210.22;;;4.85;100.00
9225;BME280;4647;48.072;11.616;2024-03-02T02:48:38;94210.31;;;4.78;100.00
9225;BME280;4647;48.072;11.616;2024-03-02T02:51:06;94207.06;;;4.94;100.00
9225;BME280;4647;48.072;11.616;2024-03-02T02:53:34;94209.72;;;4.98;100.00
9225;BME280;4647;48.072;11.616;2024-03-02T02:56:06;94212.34;;;5.05;100.00
9225;BME280;4647;48.072;11.616;2024-03-02T02:58:36;94211.94;;;5.06;100.00
9225;BME280;4647;48.072;11.616;2024-03-02T03:01:05;94215.75;;;5.09;100.00
9225;BME280;4647;48.072;11.616;2024-03-02T03:03:33;94214.94;;;5.12;100.00
9225;BME280;4647;48.072;11.616;2024-03-02T03:06:02;94208.72;;;5.18;100.00
9225;BME280;4647;48.072;11.616;2024-03-02T03:08:30;94215.56;;;5.27;100.00
9225;BME280;4647;48.072;11.616;2024-03-02T03:10:59;94225.16;;;5.24;100.00
9225;BME280;4647;48.072;11.616;2024-03-02T03:13:27;94222.53;;;5.17;100.00
9225;BME280;4647;48.072;11.616;2024-03-02T03:15:58;94223.28;;;5.21;100.00
9225;BME280;4647;48.072;11.616;2024-03-02T03:18:27;94227.47;;;5.26;100.00
9225;BME280;4647;48.072;11.616;2024-03-02T03:20:55;94227.56;;;5.49;99.74
9225;BME280;4647;48.072;11.616;2024-03-02T03:23:24;94225.91;;;5.59;98.50
9225;BME280;4647;48.072;11.616;2024-03-02T03:25:53;94221.47;;;5.45;98.74
9225;BME280;4647;48.072;11.616;2024-03-02T03:28:21;94236.22;;;5.30;99.77
9225;BME280;4647;48.072;11.616;2024-03-02T03:30:49;94235.94;;;5.54;98.59
9225;BME280;4647;48.072;11.616;2024-03-02T03:33:20;94235.38;;;5.70;97.34
9225;BME280;4647;48.072;11.616;2024-03-02T03:35:49;94235.31;;;5.74;96.62
9225;BME280;4647;48.072;11.616;2024-03-02T03:38:18;94240.16;;;5.55;97.99
9225;BME280;4647;48.072;11.616;2024-03-02T03:40:47;94242.63;;;5.39;98.92
9225;BME280;4647;48.072;11.616;2024-03-02T03:43:16;94249.97;;;5.35;99.52
9225;BME280;4647;48.072;11.616;2024-03-02T03:45:44;94245.81;;;5.31;99.70
9225;BME280;4647;48.072;11.616;2024-03-02T03:48:12;94241.75;;;5.49;99.03
9225;BME280;4647;48.072;11.616;2024-03-02T03:50:43;94239.91;;;5.43;99.38
9225;BME280;4647;48.072;11.616;2024-03-02T03:53:12;94239.53;;;5.44;99.32
9225;BME280;4647;48.072;11.616;2024-03-02T03:55:40;94241.09;;;5.38;99.87
9225;BME280;4647;48.072;11.616;2024-03-02T03:58:09;94244.25;;;5.33;100.00
9225;BME280;4647;48.072;11.616;2024-03-02T04:00:37;94248.00;;;5.39;100.00
9225;BME280;4647;48.072;11.616;2024-03-02T04:03:05;94242.94;;;5.48;99.96
9225;BME280;4647;48.072;11.616;2024-03-02T04:05:34;94247.50;;;5.51;99.87
9225;BME280;4647;48.072;11.616;2024-03-02T04:08:05;94245.63;;;5.48;99.98
9225;BME280;4647;48.072;11.616;2024-03-02T04:10:33;94244.81;;;5.51;100.00
9225;BME280;4647;48.072;11.616;2024-03-02T04:13:02;94234.47;;;5.50;100.00
9225;BME280;4647;48.072;11.616;2024-03-02T04:15:30;94237.63;;;5.41;100.00
9225;BME280;4647;48.072;11.616;2024-03-02T04:18:00;94245.25;;;5.46;100.00
9225;BME280;4647;48.072;11.616;2024-03-02T04:20:29;94242.16;;;5.48;100.00
9225;BME280;4647;48.072;11.616;2024-03-02T04:22:57;94247.50;;;5.51;100.00
9225;BME280;4647;48.072;11.616;2024-03-02T04:25:28;94246.69;;;5.54;100.00
9225;BME280;4647;48.072;11.616;2024-03-02T04:27:57;94243.91;;;5.62;100.00
9225;BME280;4647;48.072;11.616;2024-03-02T04:30:25;94250.34;;;5.68;100.00
9225;BME280;4647;48.072;11.616;2024-03-02T04:32:53;94250.09;;;5.93;98.55
9225;BME280;4647;48.072;11.616;2024-03-02T04:35:22;94246.72;;;5.81;98.69
9225;BME280;4647;48.072;11.616;2024-03-02T04:37:50;94258.06;;;5.66;99.68
9225;BME280;4647;48.072;11.616;2024-03-02T04:40:19;94254.97;;;5.67;98.98
9225;BME280;4647;48.072;11.616;2024-03-02T04:42:50;94261.06;;;5.37;100.00
9225;BME280;4647;48.072;11.616;2024-03-02T04:45:18;94255.84;;;5.57;99.94
9225;BME280;4647;48.072;11.616;2024-03-02T04:47:47;94260.44;;;5.60;99.42
9225;BME280;4647;48.072;11.616;2024-03-02T04:50:15;94270.16;;;5.50;100.00
9225;BME280;4647;48.072;11.616;2024-03-02T04:52:44;94278.16;;;5.54;100.00
9225;BME280;4647;48.072;11.616;2024-03-02T04:55:13;94274.34;;;5.51;100.00
9225;BME280;4647;48.072;11.616;2024-03-02T04:58:15;94279.88;;;5.37;100.00
9225;BME280;4647;48.072;11.616;2024-03-02T05:00:44;94281.75;;;5.40;100.00
9225;BME280;4647;48.072;11.616;2024-03-02T05:03:12;94281.78;;;5.37;100.00
9225;BME280;4647;48.072;11.616;2024-03-02T05:05:40;94283.00;;;5.32;100.00
9225;BME280;4647;48.072;11.616;2024-03-02T05:08:09;94280.69;;;5.34;100.00
9225;BME280;4647;48.072;11.616;2024-03-02T05:10:38;94282.16;;;5.39;100.00
9225;BME280;4647;48.072;11.616;2024-03-02T05:13:06;94290.56;;;5.41;100.00
9225;BME280;4647;48.072;11.616;2024-03-02T05:15:35;94288.66;;;5.41;100.00
9225;BME280;4647;48.072;11.616;2024-03-02T05:18:04;94281.34;;;5.45;100.00
9225;BME280;4647;48.072;11.616;2024-03-02T05:20:33;94295.31;;;5.30;100.00
9225;BME280;4647;48.072;11.616;2024-03-02T05:23:01;94293.91;;;5.14;100.00
9225;BME280;4647;48.072;11.616;2024-03-02T05:25:30;94289.19;;;5.29;100.00
9225;BME280;4647;48.072;11.616;2024-03-02T05:28:00;94291.19;;;5.55;100.00
9225;BME280;4647;48.072;11.616;2024-03-02T05:30:28;94291.34;;;5.41;100.00
9225;BME280;4647;48.072;11.616;2024-03-02T05:33:00;94289.19;;;5.29;100.00
9225;BME280;4647;48.072;11.616;2024-03-02T05:35:28;94288.88;;;5.20;100.00
9225;BME280;4647;48.072;11.616;2024-03-02T05:37:58;94292.34;;;5.17;100.00
9225;BME280;4647;48.072;11.616;2024-03-02T05:40:27;94294.63;;;5.22;100.00
9225;BME280;4647;48.072;11.616;2024-03-02T05:42:55;94288.41;;;5.29;100.00
9225;BME280;4647;48.072;11.616;2024-03-02T05:45:23;94300.69;;;5.30;100.00
9225;BME280;4647;48.072;11.616;2024-03-02T05:47:52;94298.47;;;5.21;100.00
9225;BME280;4647;48.072;11.616;2024-03-02T05:50:23;94291.56;;;5.20;100.00
9225;BME280;4647;48.072;11.616;2024-03-02T05:52:52;94292.66;;;5.26;100.00
9225;BME280;4647;48.072;11.616;2024-03-02T05:55:21;94293.03;;;5.28;100.00
9225;BME280;4647;48.072;11.616;2024-03-02T05:57:50;94289.97;;;5.26;100.00
9225;BME280;4647;48.072;11.616;2024-03-02T06:00:37;94284.66;;;5.19;100.00
9225;BME280;4647;48.072;11.616;2024-03-02T06:03:05;94293.44;;;5.27;100.00
9225;BME280;4647;48.072;11.616;2024-03-02T06:05:37;94300.84;;;5.49;100.00
9225;BME280;4647;48.072;11.616;2024-03-02T06:08:06;94301.66;;;5.46;100.00
9225;BME280;4647;48.072;11.616;2024-03-02T06:10:34;94291.38;;;5.38;100.00
9225;BME280;4647;48.072;11.616;2024-03-02T06:13:03;94291.50;;;5.27;100.00
9225;BME280;4647;48.072;11.616;2024-03-02T06:15:32;94287.78;;;5.14;100.00
9225;BME280;4647;48.072;11.616;2024-03-02T06:18:01;94296.06;;;5.30;100.00
9225;BME280;4647;48.072;11.616;2024-03-02T06:20:30;94302.09;;;5.41;100.00
9225;BME280;4647;48.072;11.616;2024-03-02T06:23:01;94303.31;;;5.33;100.00
9225;BME280;4647;48.072;11.616;2024-03-02T06:25:29;94310.13;;;5.41;100.00
9225;BME280;4647;48.072;11.616;2024-03-02T06:27:58;94306.28;;;5.42;100.00
9225;BME280;4647;48.072;11.616;2024-03-02T06:30:26;94306.63;;;5.48;100.00
9225;BME280;4647;48.072;11.616;2024-03-02T06:32:55;94303.66;;;5.39;100.00
9225;BME280;4647;48.072;11.616;2024-03-02T06:35:23;94309.69;;;5.50;100.00
9225;BME280;4647;48.072;11.616;2024-03-02T06:37:52;94304.75;;;5.45;100.00
9225;BME280;4647;48.072;11.616;2024-03-02T06:40:23;94305.78;;;5.54;100.00
9225;BME280;4647;48.072;11.616;2024-03-02T06:42:51;94302.34;;;5.54;100.00
9225;BME280;4647;48.072;11.616;2024-03-02T06:45:19;94302.03;;;5.48;100.00
9225;BME280;4647;48.072;11.616;2024-03-02T06:47:48;94296.16;;;5.57;100.00
9225;BME280;4647;48.072;11.616;2024-03-02T06:50:16;94292.72;;;5.57;100.00
9225;BME280;4647;48.072;11.616;2024-03-02T06:52:44;94296.97;;;5.54;100.00
9225;BME280;4647;48.072;11.616;2024-03-02T06:55:13;94290.44;;;5.55;100.00
9225;BME280;4647;48.072;11.616;2024-03-02T06:57:44;94306.53;;;5.55;100.00
9225;BME280;4647;48.072;11.616;2024-03-02T07:00:13;94305.59;;;5.72;100.00
9225;BME280;4647;48.072;11.616;2024-03-02T07:02:43;94295.66;;;5.69;100.00
9225;BME280;4647;48.072;11.616;2024-03-02T07:05:12;94298.56;;;5.82;100.00
9225;BME280;4647;48.072;11.616;2024-03-02T07:07:40;94296.59;;;5.86;100.00
9225;BME280;4647;48.072;11.616;2024-03-02T07:10:09;94297.25;;;5.97;99.46
9225;BME280;4647;48.072;11.616;2024-03-02T07:12:37;94305.72;;;5.96;99.57
9225;BME280;4647;48.072;11.616;2024-03-02T07:15:09;94302.69;;;5.94;99.61
9225;BME280;4647;48.072;11.616;2024-03-02T07:18:02;94301.19;;;5.85;99.88
9225;BME280;4647;48.072;11.616;2024-03-02T07:20:31;94303.97;;;5.78;100.00
9225;BME280;4647;48.072;11.616;2024-03-02T07:22:59;94297.56;;;5.69;100.00
9225;BME280;4647;48.072;11.616;2024-03-02T07:25:27;94298.09;;;5.57;100.00
9225;BME280;4647;48.072;11.616;2024-03-02T07:27:56;94304.19;;;5.61;100.00
9225;BME280;4647;48.072;11.616;2024-03-02T07:30:27;94302.53;;;5.70;100.00
9225;BME280;4647;48.072;11.616;2024-03-02T07:32:55;94303.25;;;5.74;99.95
9225;BME280;4647;48.072;11.616;2024-03-02T07:35:24;94307.44;;;5.79;99.77
9225;BME280;4647;48.072;11.616;2024-03-02T07:37:52;94312.44;;;5.77;99.59
9225;BME280;4647;48.072;11.616;2024-03-02T07:40:22;94299.31;;;5.82;99.69
9225;BME280;4647;48.072;11.616;2024-03-02T07:42:50;94311.22;;;5.81;99.45
9225;BME280;4647;48.072;11.616;2024-03-02T07:45:19;94315.09;;;5.80;99.41
9225;BME280;4647;48.072;11.616;2024-03-02T07:47:50;94317.88;;;5.73;99.81
9225;BME280;4647;48.072;11.616;2024-03-02T07:50:19;94321.31;;;5.74;100.00
9225;BME280;4647;48.072;11.616;2024-03-02T07:52:47;94325.38;;;5.85;100.00
9225;BME280;4647;48.072;11.616;2024-03-02T07:55:16;94323.06;;;5.88;100.00
9225;BME280;4647;48.072;11.616;2024-03-02T07:57:44;94322.34;;;6.18;98.07
9225;BME280;4647;48.072;11.616;2024-03-02T08:00:13;94325.81;;;6.14;97.79
9225;BME280;4647;48.072;11.616;2024-03-02T08:02:42;94322.31;;;6.21;98.79
9225;BME280;4647;48.072;11.616;2024-03-02T08:05:13;94330.91;;;6.36;99.12
9225;BME280;4647;48.072;11.616;2024-03-02T08:07:41;94329.22;;;6.49;97.44
9225;BME280;4647;48.072;11.616;2024-03-02T08:10:23;94324.59;;;6.50;96.82
9225;BME280;4647;48.072;11.616;2024-03-02T08:12:51;94330.28;;;6.55;94.97
9225;BME280;4647;48.072;11.616;2024-03-02T08:15:20;94327.09;;;6.64;94.72
9225;BME280;4647;48.072;11.616;2024-03-02T08:17:48;94323.47;;;6.74;92.36
9225;BME280;4647;48.072;11.616;2024-03-02T08:20:16;94317.69;;;6.49;92.88
9225;BME280;4647;48.072;11.616;2024-03-02T08:22:45;94324.53;;;6.53;93.33
9225;BME280;4647;48.072;11.616;2024-03-02T08:25:14;94330.69;;;6.54;93.72
9225;BME280;4647;48.072;11.616;2024-03-02T08:27:45;94330.38;;;6.48;94.30
9225;BME280;4647;48.072;11.616;2024-03-02T08:30:14;94334.94;;;6.78;93.37
9225;BME280;4647;48.072;11.616;2024-03-02T08:32:43;94340.03;;;6.72;93.68
9225;BME280;4647;48.072;11.616;2024-03-02T08:35:12;94338.16;;;6.69;94.31
9225;BME280;4647;48.072;11.616;2024-03-02T08:37:42;94332.31;;;6.74;94.57
9225;BME280;4647;48.072;11.616;2024-03-02T08:40:11;94342.34;;;6.97;93.92
9225;BME280;4647;48.072;11.616;2024-03-02T08:42:40;94345.22;;;7.10;93.69
9225;BME280;4647;48.072;11.616;2024-03-02T08:45:11;94348.53;;;7.41;91.43
9225;BME280;4647;48.072;11.616;2024-03-02T08:47:40;94335.28;;;7.50;89.81
9225;BME280;4647;48.072;11.616;2024-03-02T08:50:09;94348.88;;;7.43;89.11
9225;BME280;4647;48.072;11.616;2024-03-02T08:52:37;94349.59;;;7.24;89.81
9225;BME280;4647;48.072;11.616;2024-03-02T08:55:06;94341.50;;;7.47;89.05
9225;BME280;4647;48.072;11.616;2024-03-02T08:57:36;94348.53;;;7.41;89.35
9225;BME280;4647;48.072;11.616;2024-03-02T09:00:06;94345.31;;;7.50;89.14
9225;BME280;4647;48.072;11.616;2024-03-02T09:02:37;94332.47;;;7.57;88.70
9225;BME280;4647;48.072;11.616;2024-03-02T09:05:07;94337.50;;;7.55;89.40
9225;BME280;4647;48.072;11.616;2024-03-02T09:07:36;94339.47;;;7.75;88.88
9225;BME280;4647;48.072;11.616;2024-03-02T09:10:05;94343.06;;;7.88;88.23
9225;BME280;4647;48.072;11.616;2024-03-02T09:12:34;94347.75;;;8.04;87.26
9225;BME280;4647;48.072;11.616;2024-03-02T09:15:04;94341.56;;;8.07;87.25
9225;BME280;4647;48.072;11.616;2024-03-02T09:17:33;94346.28;;;7.79;88.58
9225;BME280;4647;48.072;11.616;2024-03-02T09:20:04;94339.88;;;7.93;88.80
9225;BME280;4647;48.072;11.616;2024-03-02T09:22:33;94344.66;;;8.05;88.36
9225;BME280;4647;48.072;11.616;2024-03-02T09:25:01;94347.97;;;8.13;86.94
9225;BME280;4647;48.072;11.616;2024-03-02T09:27:30;94349.00;;;8.19;85.69
9225;BME280;4647;48.072;11.616;2024-03-02T09:29:58;94351.00;;;8.15;86.74
9225;BME280;4647;48.072;11.616;2024-03-02T09:32:26;94351.03;;;8.35;85.81
9225;BME280;4647;48.072;11.616;2024-03-02T09:34:55;94342.66;;;8.65;84.32
9225;BME280;4647;48.072;11.616;2024-03-02T09:37:26;94335.50;;;8.91;83.46
9225;BME280;4647;48.072;11.616;2024-03-02T09:39:54;94332.16;;;9.03;83.07
9225;BME280;4647;48.072;11.616;2024-03-02T09:42:24;94326.91;;;9.12;82.83
9225;BME280;4647;48.072;11.616;2024-03-02T09:44:53;94327.31;;;9.11;82.32
9225;BME280;4647;48.072;11.616;2024-03-02T09:47:21;94324.25;;;9.41;81.54
9225;BME280;4647;48.072;11.616;2024-03-02T09:49:49;94329.72;;;9.54;79.38
9225;BME280;4647;48.072;11.616;2024-03-02T09:52:18;94322.91;;;9.49;78.82
9225;BME280;4647;48.072;11.616;2024-03-02T09:54:50;94324.84;;;9.78;78.63
9225;BME280;4647;48.072;11.616;2024-03-02T09:57:18;94325.94;;;9.80;78.95
9225;BME280;4647;48.072;11.616;2024-03-02T09:59:46;94326.06;;;9.90;76.92
9225;BME280;4647;48.072;11.616;2024-03-02T10:02:15;94326.34;;;10.08;76.86
9225;BME280;4647;48.072;11.616;2024-03-02T10:04:44;94326.47;;;10.17;77.44
9225;BME280;4647;48.072;11.616;2024-03-02T10:07:13;94323.31;;;10.06;77.36
9225;BME280;4647;48.072;11.616;2024-03-02T10:09:43;94318.44;;;10.13;76.79
9225;BME280;4647;48.072;11.616;2024-03-02T10:12:15;94322.97;;;10.58;76.00
9225;BME280;4647;48.072;11.616;2024-03-02T10:14:45;94312.34;;;10.38;77.83
9225;BME280;4647;48.072;11.616;2024-03-02T10:17:14;94312.13;;;10.33;78.36
9225;BME280;4647;48.072;11.616;2024-03-02T10:19:45;94306.72;;;10.33;77.55
9225;BME280;4647;48.072;11.616;2024-03-02T10:22:13;94312.16;;;10.45;77.94
9225;BME280;4647;48.072;11.616;2024-03-02T10:24:43;94313.78;;;10.56;76.81
9225;BME280;4647;48.072;11.616;2024-03-02T10:27:18;94313.03;;;10.42;76.98
9225;BME280;4647;48.072;11.616;2024-03-02T10:29:47;94315.94;;;10.48;76.67
9225;BME280;4647;48.072;11.616;2024-03-02T10:32:15;94305.22;;;10.70;76.11
9225;BME280;4647;48.072;11.616;2024-03-02T10:34:45;94300.03;;;10.75;75.68
9225;BME280;4647;48.072;11.616;2024-03-02T10:37:15;94293.06;;;11.00;74.20
9225;BME280;4647;48.072;11.616;2024-03-02T10:39:45;94295.13;;;10.96;74.29
9225;BME280;4647;48.072;11.616;2024-03-02T10:42:18;94295.09;;;11.08;74.95
9225;BME280;4647;48.072;11.616;2024-03-02T10:44:48;94287.78;;;11.31;72.85
9225;BME280;4647;48.072;11.616;2024-03-02T10:47:19;94288.22;;;11.64;72.19
9225;BME280;4647;48.072;11.616;2024-03-02T10:49:49;94284.84;;;11.38;72.51
9225;BME280;4647;48.072;11.616;2024-03-02T10:52:19;94278.94;;;11.18;71.97
9225;BME280;4647;48.072;11.616;2024-03-02T10:54:48;94270.19;;;11.01;72.65
9225;BME280;4647;48.072;11.616;2024-03-02T10:57:21;94266.78;;;11.10;72.26
9225;BME280;4647;48.072;11.616;2024-03-02T10:59:52;94272.13;;;11.13;73.20
9225;BME280;4647;48.072;11.616;2024-03-02T11:02:21;94251.22;;;11.35;72.68
9225;BME280;4647;48.072;11.616;2024-03-02T11:04:55;94263.72;;;11.55;71.86
9225;BME280;4647;48.072;11.616;2024-03-02T11:07:25;94250.75;;;11.72;70.65
9225;BME280;4647;48.072;11.616;2024-03-02T11:09:58;94255.94;;;11.79;71.01
9225;BME280;4647;48.072;11.616;2024-03-02T11:12:38;94250.81;;;11.81;70.27
9225;BME280;4647;48.072;11.616;2024-03-02T11:15:11;94246.94;;;11.47;70.82
9225;BME280;4647;48.072;11.616;2024-03-02T11:17:44;94237.34;;;11.55;70.59
9225;BME280;4647;48.072;11.616;2024-03-02T11:20:14;94231.63;;;11.75;70.37
9225;BME280;4647;48.072;11.616;2024-03-02T11:22:44;94230.25;;;11.71;71.83
9225;BME280;4647;48.072;11.616;2024-03-02T11:25:23;94220.31;;;11.55;70.85
9225;BME280;4647;48.072;11.616;2024-03-02T11:28:05;94222.47;;;11.38;71.65
9225;BME280;4647;48.072;11.616;2024-03-02T11:30:50;94220.44;;;11.29;71.83
9225;BME280;4647;48.072;11.616;2024-03-02T11:33:23;94211.72;;;11.13;72.62
9225;BME280;4647;48.072;11.616;2024-03-02T11:35:53;94207.06;;;11.57;72.48
9225;BME280;4647;48.072;11.616;2024-03-02T11:38:21;94205.47;;;11.59;70.47
9225;BME280;4647;48.072;11.616;2024-03-02T11:40:50;94200.84;;;11.47;70.78
9225;BME280;4647;48.072;11.616;2024-03-02T11:43:22;94197.56;;;11.96;69.61
9225;BME280;4647;48.072;11.616;2024-03-02T11:45:56;94191.00;;;12.15;68.42
9225;BME280;4647;48.072;11.616;2024-03-02T11:48:25;94194.59;;;11.81;68.24
9225;BME280;4647;48.072;11.616;2024-03-02T11:50:58;94188.16;;;11.66;69.18
9225;BME280;4647;48.072;11.616;2024-03-02T11:53:27;94179.88;;;11.69;68.15
9225;BME280;4647;48.072;11.616;2024-03-02T11:55:57;94176.78;;;11.58;68.73
9225;BME280;4647;48.072;11.616;2024-03-02T11:58:30;94180.59;;;11.83;68.74
9225;BME280;4647;48.072;11.616;2024-03-02T12:00:58;94175.56;;;12.03;68.06
9225;BME280;4647;48.072;11.616;2024-03-02T12:03:28;94165.16;;;12.02;67.33
9225;BME280;4647;48.072;11.616;2024-03-02T12:05:56;94159.72;;;12.02;67.10
9225;BME280;4647;48.072;11.616;2024-03-02T12:08:24;94161.66;;;11.92;67.58
9225;BME280;4647;48.072;11.616;2024-03-02T12:10:57;94166.38;;;12.41;66.99
9225;BME280;4647;48.072;11.616;2024-03-02T12:13:25;94154.91;;;12.46;66.52
9225;BME280;4647;48.072;11.616;2024-03-02T12:15:57;94150.13;;;12.68;65.54
9225;BME280;4647;48.072;11.616;2024-03-02T12:18:25;94151.66;;;12.78;66.49
9225;BME280;4647;48.072;11.616;2024-03-02T12:20:52;94152.22;;;12.55;67.01
9225;BME280;4647;48.072;11.616;2024-03-02T12:23:22;94145.88;;;12.58;66.80
9225;BME280;4647;48.072;11.616;2024-03-02T12:25:51;94153.28;;;12.67;65.90
9225;BME280;4647;48.072;11.616;2024-03-02T12:28:19;94138.94;;;12.57;65.61
9225;BME280;4647;48.072;11.616;2024-03-02T12:30:48;94141.34;;;12.55;66.18
9225;BME280;4647;48.072;11.616;2024-03-02T12:33:19;94146.16;;;12.42;66.67
9225;BME280;4647;48.072;11.616;2024-03-02T12:35:49;94133.84;;;12.19;67.53
9225;BME280;4647;48.072;11.616;2024-03-02T12:38:17;94132.06;;;12.25;67.01
9225;BME280;4647;48.072;11.616;2024-03-02T12:40:47;94130.44;;;12.37;66.75
9225;BME280;4647;48.072;11.616;2024-03-02T12:43:16;94130.50;;;12.55;66.57
9225;BME280;4647;48.072;11.616;2024-03-02T12:45:42;94120.09;;;12.63;66.37
9225;BME280;4647;48.072;11.616;2024-03-02T12:48:10;94112.03;;;12.50;67.32
9225;BME280;4647;48.072;11.616;2024-03-02T12:50:41;94111.94;;;12.72;66.71
9225;BME280;4647;48.072;11.616;2024-03-02T12:53:14;94100.56;;;12.37;67.03
9225;BME280;4647;48.072;11.616;2024-03-02T12:55:43;94099.66;;;12.31;67.82
9225;BME280;4647;48.072;11.616;2024-03-02T12:58:17;94100.72;;;12.33;66.63
9225;BME280;4647;48.072;11.616;2024-03-02T13:00:45;94096.34;;;12.36;66.44
9225;BME280;4647;48.072;11.616;2024-03-02T13:03:13;94094.34;;;12.27;66.69
9225;BME280;4647;48.072;11.616;2024-03-02T13:05:50;94090.91;;;12.36;66.36
9225;BME280;4647;48.072;11.616;2024-03-02T13:08:19;94086.69;;;12.44;66.07
9225;BME280;4647;48.072;11.616;2024-03-02T13:10:48;94081.22;;;12.25;66.19
9225;BME280;4647;48.072;11.616;2024-03-02T13:13:17;94081.34;;;12.22;65.95
9225;BME280;4647;48.072;11.616;2024-03-02T13:15:45;94068.69;;;12.28;66.46
9225;BME280;4647;48.072;11.616;2024-03-02T13:18:14;94070.03;;;12.23;65.89
9225;BME280;4647;48.072;11.616;2024-03-02T13:20:42;94084.13;;;12.31;66.05
9225;BME280;4647;48.072;11.616;2024-03-02T13:23:13;94078.09;;;12.36;65.00
9225;BME280;4647;48.072;11.616;2024-03-02T13:25:41;94071.72;;;12.30;65.38
9225;BME280;4647;48.072;11.616;2024-03-02T13:28:12;94068.84;;;12.24;65.34